createdAt,value
2022-10-08T00:00:07.412Z,6.78
2022-10-08T00:04:59.808Z,8.18
2022-10-08T00:07:26.036Z,9.88
2022-10-08T00:09:52.718Z,10.13
2022-10-08T00:12:18.942Z,9.27
2022-10-08T00:14:45.198Z,8.02
2022-10-08T00:17:11.416Z,8.90
2022-10-08T00:19:37.621Z,7.80
2022-10-08T00:22:03.838Z,7.15
2022-10-08T00:24:31.014Z,7.60
2022-10-08T00:26:58.241Z,7.35
2022-10-08T00:29:24.468Z,8.25
2022-10-08T00:31:51.490Z,8.65
2022-10-08T00:34:19.129Z,8.23
2022-10-08T00:36:45.429Z,9.07
2022-10-08T00:39:16.121Z,8.40
2022-10-08T00:41:44.076Z,9.48
2022-10-08T00:44:29.091Z,7.70
2022-10-08T00:46:55.384Z,8.70
2022-10-08T00:49:22.604Z,8.27
2022-10-08T00:51:51.662Z,9.48
2022-10-08T00:54:19.382Z,9.95
2022-10-08T00:56:47.306Z,8.95
2022-10-08T00:59:13.758Z,8.43
2022-10-08T01:01:43.680Z,9.38
2022-10-08T01:04:10.991Z,8.80
2022-10-08T01:06:37.172Z,9.32
2022-10-08T01:09:16.478Z,7.70
2022-10-08T01:11:48.027Z,7.97
2022-10-08T01:14:27.447Z,8.63
2022-10-08T01:17:12.311Z,9.82
2022-10-08T01:19:42.077Z,10.07
2022-10-08T01:22:20.496Z,9.77
2022-10-08T01:25:10.220Z,7.43
2022-10-08T01:27:43.783Z,7.05
2022-10-08T01:30:12.028Z,6.90
2022-10-08T01:32:42.794Z,6.80
2022-10-08T01:35:12.467Z,7.03
2022-10-08T01:37:41.074Z,7.65
2022-10-08T01:40:10.066Z,6.72
2022-10-08T01:42:36.847Z,7.15
2022-10-08T01:45:05.174Z,7.50
2022-10-08T01:47:32.349Z,7.43
2022-10-08T01:50:02.864Z,7.32
2022-10-08T01:52:31.762Z,7.40
2022-10-08T01:54:59.650Z,7.05
2022-10-08T01:57:27.862Z,6.57
2022-10-08T02:00:00.203Z,6.93
2022-10-08T02:02:26.589Z,6.93
2022-10-08T02:04:53.828Z,6.70
2022-10-08T02:07:23.199Z,7.40
2022-10-08T02:09:53.909Z,7.55
2022-10-08T02:12:20.907Z,7.22
2022-10-08T02:17:31.866Z,6.90
2022-10-08T02:20:19.681Z,6.45
2022-10-08T02:23:00.823Z,6.45
2022-10-08T02:25:38.318Z,6.68
2022-10-08T02:28:11.073Z,6.97
2022-10-08T02:30:42.885Z,6.07
2022-10-08T02:33:11.352Z,7.38
2022-10-08T02:35:40.015Z,7.30
2022-10-08T02:38:09.594Z,6.97
2022-10-08T02:40:37.758Z,7.75
2022-10-08T02:43:07.087Z,6.57
2022-10-08T02:45:39.373Z,7.22
2022-10-08T02:48:07.805Z,6.70
2022-10-08T02:50:36.146Z,7.18
2022-10-08T02:53:02.838Z,7.63
2022-10-08T02:55:41.965Z,7.55
2022-10-08T02:58:09.632Z,7.65
2022-10-08T03:00:38.869Z,7.35
2022-10-08T03:03:09.835Z,7.90
2022-10-08T03:05:36.824Z,7.35
2022-10-08T03:10:33.530Z,6.40
2022-10-08T03:13:03.495Z,6.38
2022-10-08T03:15:31.098Z,6.20
2022-10-08T03:17:57.847Z,6.38
2022-10-08T03:20:24.066Z,6.22
2022-10-08T03:22:50.464Z,6.57
2022-10-08T03:25:16.771Z,6.53
2022-10-08T03:27:42.966Z,7.32
2022-10-08T03:30:09.640Z,8.43
2022-10-08T03:32:35.875Z,7.45
2022-10-08T03:35:02.136Z,9.43
2022-10-08T03:37:28.390Z,9.15
2022-10-08T03:39:54.658Z,8.57
2022-10-08T03:42:20.892Z,6.68
2022-10-08T03:44:47.214Z,6.22
2022-10-08T03:47:13.487Z,5.95
2022-10-08T03:49:41.067Z,7.00
2022-10-08T03:52:07.349Z,6.80
2022-10-08T03:54:34.233Z,6.72
2022-10-08T03:57:00.470Z,6.82
2022-10-08T03:59:26.728Z,6.32
2022-10-08T04:01:53.023Z,6.72
2022-10-08T04:04:23.131Z,6.00
2022-10-08T04:06:51.737Z,7.82
2022-10-08T04:09:17.950Z,6.40
2022-10-08T04:11:44.184Z,6.70
2022-10-08T04:14:10.457Z,6.00
2022-10-08T04:16:36.687Z,7.53
2022-10-08T04:19:02.938Z,7.22
2022-10-08T04:21:29.570Z,6.80
2022-10-08T04:23:55.816Z,7.63
2022-10-08T04:26:22.096Z,8.70
2022-10-08T04:28:48.620Z,7.47
2022-10-08T04:31:19.283Z,7.32
2022-10-08T04:33:46.128Z,7.00
2022-10-08T04:36:13.923Z,7.32
2022-10-08T04:38:41.539Z,7.95
2022-10-08T04:41:07.752Z,7.93
2022-10-08T04:43:34.904Z,7.88
2022-10-08T04:46:01.432Z,7.25
2022-10-08T04:48:27.736Z,7.72
2022-10-08T04:51:01.021Z,6.93
2022-10-08T04:53:27.582Z,7.22
2022-10-08T04:55:54.758Z,8.57
2022-10-08T04:58:21.480Z,8.20
2022-10-08T05:00:47.743Z,6.55
2022-10-08T05:03:14.205Z,8.52
2022-10-08T05:05:43.997Z,9.32
2022-10-08T05:08:10.412Z,10.23
2022-10-08T05:10:36.998Z,8.32
2022-10-08T05:13:03.490Z,8.25
2022-10-08T05:15:30.109Z,7.30
2022-10-08T05:17:56.413Z,7.80
2022-10-08T05:20:22.652Z,8.38
2022-10-08T05:22:49.242Z,8.23
2022-10-08T05:25:15.656Z,8.52
2022-10-08T05:27:41.884Z,8.20
2022-10-08T05:30:08.436Z,7.93
2022-10-08T05:32:34.639Z,8.65
2022-10-08T05:35:00.879Z,8.23
2022-10-08T05:37:27.097Z,8.07
2022-10-08T05:39:53.316Z,8.80
2022-10-08T05:42:19.562Z,7.00
2022-10-08T05:44:45.819Z,7.65
2022-10-08T05:47:12.030Z,6.78
2022-10-08T05:49:38.319Z,5.23
2022-10-08T05:52:04.709Z,5.40
2022-10-08T05:54:31.068Z,6.30
2022-10-08T05:56:57.287Z,6.03
2022-10-08T05:59:24.204Z,5.68
2022-10-08T06:04:18.227Z,8.23
2022-10-08T06:06:44.949Z,6.30
2022-10-08T06:09:13.377Z,6.10
2022-10-08T06:11:39.911Z,6.45
2022-10-08T06:14:07.170Z,6.00
2022-10-08T06:16:34.234Z,6.53
2022-10-08T06:21:29.358Z,8.43
2022-10-08T06:23:56.914Z,17.02
2022-10-08T06:26:25.969Z,9.48
2022-10-08T06:28:52.624Z,6.78
2022-10-08T06:31:19.239Z,6.45
2022-10-08T06:33:45.581Z,6.75
2022-10-08T06:36:37.903Z,7.60
2022-10-08T06:39:08.036Z,6.57
2022-10-08T06:41:35.020Z,6.25
2022-10-08T06:44:02.712Z,6.80
2022-10-08T06:46:31.177Z,16.25
2022-10-08T06:48:58.429Z,9.70
2022-10-08T06:51:24.647Z,7.57
2022-10-08T06:53:52.404Z,6.60
2022-10-08T06:56:18.742Z,7.25
2022-10-08T06:58:45.933Z,5.18
2022-10-08T07:01:13.316Z,4.78
2022-10-08T07:03:39.802Z,4.97
2022-10-08T07:06:07.685Z,4.40
2022-10-08T07:08:35.911Z,4.30
2022-10-08T07:11:09.778Z,4.15
2022-10-08T07:13:37.047Z,4.28
2022-10-08T07:16:04.309Z,5.07
2022-10-08T07:18:31.427Z,4.32
2022-10-08T07:20:57.873Z,4.50
2022-10-08T07:23:24.312Z,4.32
2022-10-08T07:25:59.498Z,4.30
2022-10-08T07:28:26.649Z,5.40
2022-10-08T07:30:52.906Z,4.03
2022-10-08T07:33:19.306Z,4.40
2022-10-08T07:35:45.578Z,4.18
2022-10-08T07:38:11.857Z,4.53
2022-10-08T07:40:38.375Z,4.35
2022-10-08T07:43:04.983Z,5.00
2022-10-08T07:45:31.514Z,4.13
2022-10-08T07:47:57.856Z,4.05
2022-10-08T07:50:24.365Z,3.65
2022-10-08T07:52:50.614Z,5.20
2022-10-08T07:55:16.825Z,4.25
2022-10-08T07:57:43.032Z,4.20
2022-10-08T08:00:09.632Z,4.13
2022-10-08T08:02:35.923Z,4.47
2022-10-08T08:05:02.644Z,4.10
2022-10-08T08:07:29.406Z,4.03
2022-10-08T08:09:55.623Z,4.18
2022-10-08T08:12:22.016Z,3.47
2022-10-08T08:14:48.288Z,4.25
2022-10-08T08:17:14.520Z,4.10
2022-10-08T08:19:40.759Z,4.35
2022-10-08T08:22:07.238Z,4.15
2022-10-08T08:24:33.539Z,3.83
2022-10-08T08:26:59.766Z,3.30
2022-10-08T08:29:25.990Z,3.20
2022-10-08T08:31:52.262Z,3.63
2022-10-08T08:34:20.171Z,3.85
2022-10-08T08:36:48.657Z,3.00
2022-10-08T08:39:17.241Z,4.15
2022-10-08T08:42:02.491Z,3.42
2022-10-08T08:44:28.737Z,3.03
2022-10-08T08:47:15.278Z,3.20
2022-10-08T08:49:52.022Z,3.63
2022-10-08T08:52:20.925Z,3.50
2022-10-08T08:54:49.195Z,3.25
2022-10-08T08:57:24.809Z,2.72
2022-10-08T08:59:53.632Z,3.05
2022-10-08T09:02:24.163Z,3.15
2022-10-08T09:04:53.539Z,3.35
2022-10-08T09:07:22.502Z,2.97
2022-10-08T09:09:51.111Z,2.60
2022-10-08T09:12:40.487Z,3.05
2022-10-08T09:15:15.831Z,3.22
2022-10-08T09:17:42.270Z,2.80
2022-10-08T09:20:13.629Z,2.33
2022-10-08T09:22:40.539Z,3.13
2022-10-08T09:25:06.786Z,2.42
2022-10-08T09:27:43.032Z,3.63
2022-10-08T09:30:29.732Z,2.03
2022-10-08T09:32:57.436Z,2.97
2022-10-08T09:35:24.120Z,2.60
2022-10-08T09:37:51.190Z,2.50
2022-10-08T09:40:17.591Z,2.50
2022-10-08T09:42:43.859Z,2.50
2022-10-08T09:45:28.803Z,2.78
2022-10-08T09:48:14.081Z,1.92
2022-10-08T09:50:46.765Z,1.67
2022-10-08T09:53:13.070Z,2.13
2022-10-08T09:55:40.663Z,1.98
2022-10-08T09:58:17.065Z,2.03
2022-10-08T10:00:43.299Z,1.80
2022-10-08T10:03:16.572Z,1.95
2022-10-08T10:05:43.370Z,2.00
2022-10-08T10:08:28.287Z,1.88
2022-10-08T10:10:54.512Z,2.03
2022-10-08T10:13:23.531Z,2.30
2022-10-08T10:15:56.858Z,2.63
2022-10-08T10:18:25.618Z,1.65
2022-10-08T10:20:55.275Z,2.17
2022-10-08T10:23:23.943Z,1.95
2022-10-08T10:26:02.916Z,1.75
2022-10-08T10:28:41.181Z,1.63
2022-10-08T10:31:13.790Z,1.52
2022-10-08T10:33:46.390Z,1.13
2022-10-08T10:36:14.997Z,1.55
2022-10-08T10:38:45.265Z,0.98
2022-10-08T10:41:15.747Z,1.38
2022-10-08T10:43:48.393Z,1.13
2022-10-08T10:46:26.536Z,1.17
2022-10-08T10:48:53.027Z,1.00
2022-10-08T10:51:22.380Z,1.65
2022-10-08T10:54:21.334Z,1.35
2022-10-08T10:56:51.418Z,1.55
2022-10-08T10:59:20.664Z,1.13
2022-10-08T11:01:50.023Z,1.13
2022-10-08T11:04:31.348Z,1.15
2022-10-08T11:07:06.187Z,0.80
2022-10-08T11:09:36.779Z,1.08
2022-10-08T11:12:14.890Z,0.85
2022-10-08T11:14:56.739Z,0.93
2022-10-08T11:17:29.983Z,1.05
2022-10-08T11:20:15.270Z,1.02
2022-10-08T11:22:52.438Z,1.10
2022-10-08T11:25:23.417Z,1.00
2022-10-08T11:28:06.141Z,1.08
2022-10-08T11:30:42.443Z,1.10
2022-10-08T11:33:12.211Z,0.95
2022-10-08T11:35:41.349Z,0.98
2022-10-08T11:38:15.026Z,1.02
2022-10-08T11:40:41.235Z,0.90
2022-10-08T11:43:21.072Z,1.10
2022-10-08T11:45:49.722Z,1.10
2022-10-08T11:48:30.628Z,0.98
2022-10-08T11:51:32.286Z,1.33
2022-10-08T11:53:58.497Z,1.02
2022-10-08T11:56:24.794Z,1.05
2022-10-08T11:58:55.624Z,1.35
2022-10-08T12:01:22.216Z,1.10
2022-10-08T12:04:17.667Z,1.33
2022-10-08T12:06:45.954Z,1.20
2022-10-08T12:09:22.127Z,1.50
2022-10-08T12:11:49.778Z,0.93
2022-10-08T12:14:16.888Z,0.90
2022-10-08T12:16:49.184Z,0.95
2022-10-08T12:19:33.869Z,0.80
2022-10-08T12:22:00.848Z,0.90
2022-10-08T12:24:39.251Z,0.93
2022-10-08T12:27:17.870Z,1.05
2022-10-08T12:30:03.573Z,1.25
2022-10-08T12:32:31.160Z,1.30
2022-10-08T12:34:58.024Z,1.00
2022-10-08T12:39:51.510Z,1.10
2022-10-08T12:42:19.280Z,1.00
2022-10-08T12:44:48.292Z,0.80
2022-10-08T12:47:22.725Z,1.30
2022-10-08T12:50:00.056Z,0.77
2022-10-08T12:52:26.491Z,1.20
2022-10-08T12:54:54.736Z,0.98
2022-10-08T12:57:22.845Z,0.70
2022-10-08T12:59:50.319Z,0.98
2022-10-08T13:02:24.629Z,1.33
2022-10-08T13:04:50.863Z,1.20
2022-10-08T13:07:28.166Z,0.90
2022-10-08T13:09:59.196Z,0.90
2022-10-08T13:12:25.904Z,1.30
2022-10-08T13:14:59.360Z,1.10
2022-10-08T13:17:27.246Z,1.20
2022-10-08T13:20:04.178Z,1.33
2022-10-08T13:22:30.676Z,1.35
2022-10-08T13:24:57.067Z,1.10
2022-10-08T13:27:24.890Z,0.95
2022-10-08T13:29:51.290Z,1.10
2022-10-08T13:32:22.134Z,1.08
2022-10-08T13:34:53.562Z,1.10
2022-10-08T13:37:22.787Z,1.00
2022-10-08T13:40:03.907Z,0.85
2022-10-08T13:42:34.301Z,0.88
2022-10-08T13:45:01.517Z,1.08
2022-10-08T13:47:28.433Z,1.10
2022-10-08T13:50:00.304Z,1.20
2022-10-08T13:52:27.327Z,1.13
2022-10-08T13:54:56.354Z,1.35
2022-10-08T13:57:22.545Z,1.10
2022-10-08T13:59:48.748Z,1.10
2022-10-08T14:02:14.996Z,1.23
2022-10-08T14:04:41.554Z,1.10
2022-10-08T14:07:34.102Z,1.05
2022-10-08T14:10:01.321Z,1.10
2022-10-08T14:12:30.692Z,1.33
2022-10-08T14:14:57.453Z,1.58
2022-10-08T14:17:23.970Z,1.40
2022-10-08T14:19:50.638Z,1.80
2022-10-08T14:24:43.032Z,2.00
2022-10-08T14:27:09.456Z,1.00
2022-10-08T14:32:02.537Z,1.55
2022-10-08T14:34:28.763Z,1.33
2022-10-08T14:36:55.652Z,1.98
2022-10-08T14:39:22.451Z,2.10
2022-10-08T14:41:48.692Z,2.42
2022-10-08T14:44:16.633Z,2.05
2022-10-08T14:46:43.367Z,2.03
2022-10-08T14:49:09.638Z,1.80
2022-10-08T14:51:39.007Z,1.65
2022-10-08T14:54:06.202Z,1.40
2022-10-08T14:56:32.732Z,1.90
2022-10-08T14:58:58.971Z,1.95
2022-10-08T15:01:25.363Z,1.98
2022-10-08T15:03:51.662Z,2.00
2022-10-08T15:06:17.954Z,2.00
2022-10-08T15:08:44.225Z,2.20
2022-10-08T15:11:10.531Z,2.25
2022-10-08T15:13:36.820Z,2.03
2022-10-08T15:16:03.672Z,2.40
2022-10-08T15:18:31.164Z,2.35
2022-10-08T15:20:58.764Z,2.05
2022-10-08T15:23:25.506Z,2.13
2022-10-08T15:25:58.804Z,2.05
2022-10-08T15:28:26.619Z,1.70
2022-10-08T15:31:12.448Z,1.67
2022-10-08T15:33:39.454Z,2.33
2022-10-08T15:36:17.027Z,2.22
2022-10-08T15:38:43.319Z,2.78
2022-10-08T15:41:09.565Z,1.77
2022-10-08T15:43:35.783Z,1.95
2022-10-08T15:46:09.357Z,2.00
2022-10-08T15:48:35.731Z,1.95
2022-10-08T15:51:02.066Z,2.00
2022-10-08T15:53:32.332Z,2.58
2022-10-08T15:55:58.569Z,2.17
2022-10-08T15:58:46.077Z,1.92
2022-10-08T16:01:12.533Z,2.22
2022-10-08T16:03:40.302Z,1.80
2022-10-08T16:06:08.236Z,1.83
2022-10-08T16:08:35.796Z,1.83
2022-10-08T16:11:12.706Z,1.92
2022-10-08T16:13:39.275Z,2.30
2022-10-08T16:16:06.150Z,2.92
2022-10-08T16:18:32.383Z,1.55
2022-10-08T16:21:00.383Z,1.77
2022-10-08T16:23:26.660Z,1.70
2022-10-08T16:25:52.872Z,2.40
2022-10-08T16:28:19.242Z,1.88
2022-10-08T16:30:45.571Z,4.85
2022-10-08T16:33:11.828Z,3.53
2022-10-08T16:35:38.530Z,4.53
2022-10-08T16:38:04.739Z,4.18
2022-10-08T16:40:30.954Z,4.25
2022-10-08T16:42:57.178Z,4.13
2022-10-08T16:45:23.408Z,4.80
2022-10-08T16:47:49.642Z,3.22
2022-10-08T16:50:15.859Z,3.72
2022-10-08T16:52:42.156Z,2.75
2022-10-08T16:55:08.697Z,2.65
2022-10-08T16:57:34.954Z,3.42
2022-10-08T17:00:01.226Z,3.17
2022-10-08T17:02:27.526Z,3.72
2022-10-08T17:04:53.779Z,4.00
2022-10-08T17:07:20.038Z,7.65
2022-10-08T17:09:46.595Z,4.15
2022-10-08T17:12:12.837Z,6.25
2022-10-08T17:14:39.052Z,5.40
2022-10-08T17:17:05.455Z,4.60
2022-10-08T17:19:31.749Z,6.10
2022-10-08T17:21:58.075Z,4.82
2022-10-08T17:24:24.288Z,8.32
2022-10-08T17:26:50.520Z,6.75
2022-10-08T17:29:16.796Z,7.13
2022-10-08T17:31:43.208Z,7.72
2022-10-08T17:34:09.965Z,7.93
2022-10-08T17:36:37.693Z,7.82
2022-10-08T17:39:05.361Z,9.38
2022-10-08T17:41:32.856Z,7.22
2022-10-08T17:44:01.108Z,7.10
2022-10-08T17:46:28.961Z,7.80
2022-10-08T17:48:55.662Z,8.77
2022-10-08T17:51:23.182Z,10.45
2022-10-08T17:53:53.417Z,12.90
2022-10-08T17:56:19.985Z,10.55
2022-10-08T17:58:46.200Z,11.15
2022-10-08T18:01:20.862Z,12.98
2022-10-08T18:03:51.646Z,20.75
2022-10-08T18:06:18.552Z,12.45
2022-10-08T18:08:44.840Z,10.95
2022-10-08T18:11:12.064Z,8.93
2022-10-08T18:13:38.319Z,7.15
2022-10-08T18:16:05.653Z,5.70
2022-10-08T18:18:32.003Z,3.85
2022-10-08T18:20:59.177Z,2.50
2022-10-08T18:23:27.201Z,2.92
2022-10-08T18:25:54.090Z,2.88
2022-10-08T18:30:46.905Z,3.20
2022-10-08T18:33:14.349Z,3.47
2022-10-08T18:35:40.811Z,3.50
2022-10-08T18:38:07.022Z,4.07
2022-10-08T18:40:33.228Z,4.82
2022-10-08T18:42:59.490Z,4.70
2022-10-08T18:45:25.711Z,5.13
2022-10-08T18:47:51.940Z,5.35
2022-10-08T18:50:18.158Z,13.68
2022-10-08T18:52:44.467Z,13.23
2022-10-08T18:55:10.709Z,9.55
2022-10-08T18:57:36.922Z,10.20
2022-10-08T19:00:03.523Z,10.32
2022-10-08T19:02:29.966Z,8.40
2022-10-08T19:04:57.897Z,9.95
2022-10-08T19:07:24.162Z,4.18
2022-10-08T19:09:50.363Z,4.68
2022-10-08T19:12:16.612Z,3.80
2022-10-08T19:14:42.821Z,5.18
2022-10-08T19:17:09.032Z,3.63
2022-10-08T19:19:35.289Z,4.20
2022-10-08T19:22:01.662Z,4.63
2022-10-08T19:24:27.997Z,4.60
2022-10-08T19:26:54.791Z,4.95
2022-10-08T19:29:22.415Z,4.40
2022-10-08T19:31:49.957Z,5.38
2022-10-08T19:34:18.109Z,4.88
2022-10-08T19:36:44.639Z,5.10
2022-10-08T19:39:12.823Z,5.53
2022-10-08T19:41:39.661Z,5.40
2022-10-08T19:44:06.382Z,5.60
2022-10-08T19:46:32.946Z,46.22
2022-10-08T19:49:00.470Z,63.65
2022-10-08T19:51:28.147Z,42.60
2022-10-08T19:53:54.809Z,93.00
2022-10-08T19:56:21.627Z,7.55
2022-10-08T19:58:49.583Z,6.15
2022-10-08T20:01:17.197Z,6.38
2022-10-08T20:03:43.433Z,6.43
2022-10-08T20:06:14.347Z,7.85
2022-10-08T20:08:40.695Z,6.28
2022-10-08T20:11:14.230Z,7.05
2022-10-08T20:13:41.459Z,6.88
2022-10-08T20:16:09.649Z,26.83
2022-10-08T20:18:36.319Z,32.47
2022-10-08T20:21:03.538Z,18.33
2022-10-08T20:23:29.868Z,11.35
2022-10-08T20:26:06.302Z,14.18
2022-10-08T20:28:32.614Z,10.38
2022-10-08T20:31:07.103Z,16.10
2022-10-08T20:33:33.417Z,22.35
2022-10-08T20:35:59.646Z,10.65
2022-10-08T20:38:28.811Z,9.60
2022-10-08T20:40:55.555Z,8.38
2022-10-08T20:43:25.844Z,8.23
2022-10-08T20:45:52.054Z,8.35
2022-10-08T20:48:18.332Z,8.52
2022-10-08T20:50:44.539Z,8.15
2022-10-08T20:53:10.807Z,8.20
2022-10-08T20:55:38.289Z,7.45
2022-10-08T20:58:04.815Z,7.40
2022-10-08T21:00:31.602Z,7.57
2022-10-08T21:02:57.880Z,6.15
2022-10-08T21:05:24.381Z,5.53
2022-10-08T21:07:50.615Z,6.18
2022-10-08T21:10:16.898Z,5.55
2022-10-08T21:12:43.191Z,6.10
2022-10-08T21:15:09.748Z,5.53
2022-10-08T21:17:36.200Z,6.07
2022-10-08T21:20:02.464Z,5.70
2022-10-08T21:22:28.751Z,6.80
2022-10-08T21:24:55.028Z,6.53
2022-10-08T21:27:21.295Z,5.32
2022-10-08T21:29:47.562Z,5.68
2022-10-08T21:32:16.693Z,5.25
2022-10-08T21:34:42.933Z,5.53
2022-10-08T21:37:13.598Z,5.32
2022-10-08T21:39:40.142Z,4.57
2022-10-08T21:42:06.423Z,5.88
2022-10-08T21:44:33.709Z,5.85
2022-10-08T21:46:59.961Z,5.47
2022-10-08T21:49:26.432Z,5.60
2022-10-08T21:51:52.790Z,4.95
2022-10-08T21:54:19.079Z,5.50
2022-10-08T21:56:45.396Z,5.55
2022-10-08T21:59:12.909Z,5.90
2022-10-08T22:01:43.733Z,5.60
2022-10-08T22:04:14.219Z,5.82
2022-10-08T22:06:42.322Z,5.57
2022-10-08T22:09:10.702Z,6.25
2022-10-08T22:11:37.082Z,6.68
2022-10-08T22:14:04.128Z,7.90
2022-10-08T22:18:57.216Z,10.93
2022-10-08T22:21:23.788Z,8.35
2022-10-08T22:23:50.891Z,6.88
2022-10-08T22:26:26.300Z,5.97
2022-10-08T22:28:52.649Z,6.28
2022-10-08T22:31:19.817Z,6.82
2022-10-08T22:33:46.260Z,5.22
2022-10-08T22:36:14.251Z,5.95
2022-10-08T22:38:41.160Z,7.00
2022-10-08T22:41:12.336Z,5.45
2022-10-08T22:43:39.285Z,6.18
2022-10-08T22:46:07.046Z,6.80
2022-10-08T22:48:33.496Z,6.82
2022-10-08T22:51:03.834Z,6.82
2022-10-08T22:53:30.096Z,7.22
2022-10-08T22:55:56.335Z,6.65
2022-10-08T22:58:22.580Z,7.20
2022-10-08T23:01:02.246Z,7.00
2022-10-08T23:03:28.766Z,6.57
2022-10-08T23:06:05.538Z,7.03
2022-10-08T23:08:32.060Z,7.88
2022-10-08T23:10:58.600Z,8.07
2022-10-08T23:13:25.059Z,7.00
2022-10-08T23:16:02.620Z,6.18
2022-10-08T23:20:55.004Z,5.50
2022-10-08T23:23:21.233Z,5.47
2022-10-08T23:25:53.999Z,5.50
2022-10-08T23:28:20.273Z,6.97
2022-10-08T23:30:46.570Z,6.70
2022-10-08T23:33:12.798Z,10.70
2022-10-08T23:35:39.013Z,7.47
2022-10-08T23:38:05.250Z,7.57
2022-10-08T23:40:31.467Z,7.55
2022-10-08T23:42:57.724Z,7.15
2022-10-08T23:45:23.965Z,7.03
2022-10-08T23:47:50.220Z,7.82
2022-10-08T23:50:16.461Z,7.60
2022-10-08T23:52:42.664Z,8.13
2022-10-08T23:55:09.055Z,8.40
2022-10-08T23:57:35.266Z,9.35
